Time;durP1;ratioP1;P1;durP2;ratioP2;P2;SDS_P1;SDS_P2;PMS_P1;PMS_P2;Temp;Humidity;BMP_temperature;BMP_pressure;BME280_temperature;BME280_humidity;BME280_pressure;Samples;Min_cycle;Max_cycle;Signal;HPM_P1;HPM_P2
2022/09/09 00:01:27;;;;;;;9.02;7.07;;;16.10;99.90;;;;;;5026971;28;20208;-63
2022/09/09 00:03:58;;;;;;;14.60;6.75;;;16.00;99.90;;;;;;5021200;28;20221;-64
2022/09/09 00:06:30;;;;;;;8.80;6.90;;;16.00;99.90;;;;;;5022286;28;20224;-63
2022/09/09 00:09:05;;;;;;;7.20;6.25;;;16.00;99.90;;;;;;5028831;28;20201;-64
2022/09/09 00:11:40;;;;;;;7.40;6.45;;;16.00;99.90;;;;;;5023495;28;20721;-64
2022/09/09 00:14:16;;;;;;;8.85;6.88;;;15.90;99.90;;;;;;5020477;28;20212;-64
2022/09/09 00:16:49;;;;;;;7.10;6.40;;;15.90;99.90;;;;;;5001782;28;20205;-64
2022/09/09 00:19:23;;;;;;;10.95;6.72;;;15.90;99.90;;;;;;5019406;28;20208;-63
2022/09/09 00:21:57;;;;;;;11.00;7.13;;;15.80;99.90;;;;;;5014829;28;20212;-63
2022/09/09 00:24:30;;;;;;;9.13;6.28;;;15.90;99.90;;;;;;5030739;28;20312;-64
2022/09/09 00:27:04;;;;;;;16.55;6.90;;;15.80;99.90;;;;;;5023285;28;20213;-64
2022/09/09 00:29:37;;;;;;;7.35;6.15;;;15.80;99.90;;;;;;5003122;28;20210;-64
2022/09/09 00:32:13;;;;;;;11.77;7.25;;;15.70;99.90;;;;;;5001511;28;20214;-65
2022/09/09 00:34:49;;;;;;;7.95;6.65;;;15.80;99.90;;;;;;5010781;28;20278;-64
2022/09/09 00:37:17;;;;;;;8.50;6.75;;;15.00;99.90;;;;;;5025427;28;20323;-64
2022/09/09 00:39:46;;;;;;;12.02;6.63;;;15.70;99.90;;;;;;5029329;28;20292;-63
2022/09/09 00:42:17;;;;;;;9.65;6.72;;;16.00;99.90;;;;;;5018826;28;20624;-63
2022/09/09 00:44:53;;;;;;;9.27;7.13;;;15.60;99.90;;;;;;5029547;28;20229;-63
2022/09/09 00:47:42;;;;;;;10.35;6.93;;;15.50;99.90;;;;;;5002986;28;20220;-64
2022/09/09 00:50:26;;;;;;;9.13;6.40;;;15.60;99.90;;;;;;5003581;28;20682;-64
2022/09/09 00:53:04;;;;;;;8.82;7.22;;;15.60;99.90;;;;;;5026264;28;20283;-63
2022/09/09 00:55:41;;;;;;;8.45;6.57;;;15.60;99.90;;;;;;5028886;28;20220;-64
2022/09/09 00:58:10;;;;;;;8.98;7.00;;;15.50;99.90;;;;;;5016435;28;20207;-63
2022/09/09 01:00:43;;;;;;;8.10;7.30;;;15.60;99.90;;;;;;5004837;28;20296;-64
2022/09/09 01:03:23;;;;;;;10.50;6.72;;;15.50;99.90;;;;;;5002849;28;20801;-64
2022/09/09 01:06:01;;;;;;;7.20;6.43;;;15.50;99.90;;;;;;5008493;28;20264;-64
2022/09/09 01:08:43;;;;;;;7.90;6.13;;;15.50;99.90;;;;;;5026634;28;20197;-64
2022/09/09 01:11:16;;;;;;;6.97;5.68;;;15.70;99.90;;;;;;5026361;28;20202;-63
2022/09/09 01:13:50;;;;;;;8.43;7.10;;;15.70;99.90;;;;;;5009199;28;20240;-63
2022/09/09 01:16:18;;;;;;;15.27;7.30;;;15.60;99.90;;;;;;5026442;28;20301;-65
2022/09/09 01:18:50;;;;;;;12.00;6.38;;;15.50;99.90;;;;;;4996776;28;20552;-64
2022/09/09 01:21:26;;;;;;;9.20;7.00;;;15.60;99.90;;;;;;5007380;28;20210;-64
2022/09/09 01:24:10;;;;;;;12.77;6.68;;;15.40;99.90;;;;;;5028540;28;20516;-63
2022/09/09 01:26:41;;;;;;;8.95;6.82;;;15.50;99.90;;;;;;5016204;28;20221;-63
2022/09/09 01:29:09;;;;;;;9.82;7.35;;;15.80;99.90;;;;;;5016444;28;21541;-64
2022/09/09 01:31:40;;;;;;;10.90;7.32;;;15.60;99.90;;;;;;5002211;28;20209;-64
2022/09/09 01:34:12;;;;;;;9.18;7.00;;;15.40;99.90;;;;;;5021805;28;20205;-63
2022/09/09 01:36:44;;;;;;;9.20;7.47;;;15.50;99.90;;;;;;5004157;28;20229;-63
2022/09/09 01:39:12;;;;;;;11.27;6.07;;;15.30;99.90;;;;;;5028515;28;20198;-64
2022/09/09 01:41:40;;;;;;;10.93;7.72;;;15.50;99.90;;;;;;5024418;28;20593;-64
2022/09/09 01:44:08;;;;;;;8.43;6.43;;;15.50;99.90;;;;;;5013070;28;20202;-64
2022/09/09 01:46:35;;;;;;;8.88;6.82;;;15.50;99.90;;;;;;5016302;28;20209;-63
2022/09/09 01:49:04;;;;;;;9.85;6.97;;;15.50;99.90;;;;;;5001359;28;20213;-64
2022/09/09 01:51:32;;;;;;;9.77;7.35;;;15.60;99.90;;;;;;5013953;28;20926;-63
2022/09/09 01:53:58;;;;;;;8.43;6.82;;;15.50;99.90;;;;;;5020166;28;20777;-63
2022/09/09 01:56:36;;;;;;;8.60;7.53;;;15.20;99.90;;;;;;5027066;28;20296;-63
2022/09/09 01:59:18;;;;;;;9.68;7.30;;;15.30;99.90;;;;;;5016287;28;20577;-64
2022/09/09 02:01:58;;;;;;;9.88;7.30;;;15.30;99.90;;;;;;5014076;28;20201;-64
2022/09/09 02:04:36;;;;;;;7.43;6.55;;;15.30;99.90;;;;;;4997076;28;20216;-63
2022/09/09 02:07:11;;;;;;;10.98;7.60;;;16.00;99.90;;;;;;5003563;28;20198;-63
2022/09/09 02:09:41;;;;;;;9.57;7.18;;;15.10;99.90;;;;;;5025556;28;20193;-63
2022/09/09 02:12:12;;;;;;;13.52;6.75;;;15.30;99.90;;;;;;5028771;28;20215;-63
2022/09/09 02:14:45;;;;;;;9.20;6.97;;;15.40;99.90;;;;;;5015994;28;20945;-63
2022/09/09 02:17:18;;;;;;;13.77;7.47;;;15.20;99.90;;;;;;5015556;28;21017;-64
2022/09/09 02:19:48;;;;;;;9.40;6.78;;;15.40;99.90;;;;;;5001015;28;20217;-63
2022/09/09 02:22:18;;;;;;;10.25;7.28;;;15.20;99.90;;;;;;5014283;28;20232;-64
2022/09/09 02:24:46;;;;;;;8.50;6.75;;;15.30;99.90;;;;;;5022109;28;21081;-63
2022/09/09 02:27:14;;;;;;;10.40;6.97;;;15.10;99.90;;;;;;5029515;28;20201;-63
2022/09/09 02:29:44;;;;;;;9.05;7.28;;;15.10;99.90;;;;;;5024663;28;20948;-63
2022/09/09 02:32:16;;;;;;;9.77;6.95;;;15.10;99.90;;;;;;5015437;28;20213;-63
2022/09/09 02:34:48;;;;;;;10.45;7.15;;;15.10;99.90;;;;;;4995948;28;20727;-64
2022/09/09 02:37:18;;;;;;;10.15;7.22;;;15.20;99.90;;;;;;5020624;28;20210;-64
2022/09/09 02:39:45;;;;;;;8.93;7.72;;;15.20;99.90;;;;;;5003309;28;20205;-63
2022/09/09 02:42:14;;;;;;;9.65;6.80;;;15.10;99.90;;;;;;5028080;28;20194;-64
2022/09/09 02:44:43;;;;;;;9.45;7.40;;;15.10;99.90;;;;;;5027790;28;20221;-63
2022/09/09 02:47:30;;;;;;;8.48;7.35;;;15.00;99.90;;;;;;5024769;28;20201;-63
2022/09/09 02:50:06;;;;;;;7.63;6.72;;;16.40;99.90;;;;;;4993939;28;21383;-63
2022/09/09 02:52:40;;;;;;;11.48;7.05;;;15.10;99.90;;;;;;5022099;28;20212;-64
2022/09/09 02:55:13;;;;;;;8.10;6.82;;;15.10;99.90;;;;;;5016246;28;20240;-64
2022/09/09 02:57:41;;;;;;;7.80;6.80;;;15.00;99.90;;;;;;5028215;28;20652;-63
2022/09/09 03:00:11;;;;;;;8.63;7.30;;;15.00;99.90;;;;;;5031501;28;20197;-63
2022/09/09 03:02:38;;;;;;;8.40;6.80;;;15.10;99.90;;;;;;5014024;28;20206;-63
2022/09/09 03:05:06;;;;;;;13.73;7.30;;;15.00;99.90;;;;;;5024075;28;20224;-63
2022/09/09 03:07:33;;;;;;;11.48;6.57;;;15.20;99.90;;;;;;4987441;28;20210;-64
2022/09/09 03:10:00;;;;;;;7.30;6.28;;;15.30;99.90;;;;;;5006796;28;20296;-63
2022/09/09 03:12:26;;;;;;;8.68;6.97;;;14.90;99.90;;;;;;5033988;28;20202;-63
2022/09/09 03:14:53;;;;;;;8.35;6.45;;;15.00;99.90;;;;;;5027145;28;20229;-63
2022/09/09 03:17:21;;;;;;;9.95;7.53;;;15.00;99.90;;;;;;5021425;28;20222;-64
2022/09/09 03:19:49;;;;;;;8.77;6.53;;;13.30;99.90;;;;;;5016673;28;20213;-63
2022/09/09 03:22:16;;;;;;;8.40;7.03;;;14.90;99.90;;;;;;5003381;28;20230;-63
2022/09/09 03:24:43;;;;;;;8.23;6.50;;;;;;;;;;5012358;28;20212;-64
2022/09/09 03:27:10;;;;;;;10.85;7.40;;;14.90;99.90;;;;;;5014757;28;20217;-63
2022/09/09 03:29:36;;;;;;;9.50;6.88;;;15.00;99.90;;;;;;5024064;28;20283;-63
2022/09/09 03:32:03;;;;;;;8.25;7.15;;;15.00;99.90;;;;;;5002502;28;20960;-64
2022/09/09 03:34:31;;;;;;;9.90;6.82;;;14.90;99.90;;;;;;5017641;28;20776;-64
2022/09/09 03:36:58;;;;;;;8.75;6.38;;;15.10;99.90;;;;;;5035166;28;20198;-64
2022/09/09 03:39:25;;;;;;;10.52;6.50;;;15.00;99.90;;;;;;5003645;22;20243;-63
2022/09/09 03:41:52;;;;;;;6.93;6.15;;;15.00;99.90;;;;;;5022818;28;20213;-63
2022/09/09 03:44:19;;;;;;;9.73;7.10;;;15.00;99.90;;;;;;5031984;28;20241;-63
2022/09/09 03:46:45;;;;;;;9.13;6.25;;;14.90;99.90;;;;;;5012547;28;20221;-63
2022/09/09 03:49:12;;;;;;;7.63;5.93;;;15.00;99.90;;;;;;5042147;28;20235;-63
2022/09/09 03:51:40;;;;;;;10.05;6.32;;;15.10;99.90;;;;;;5034899;28;20232;-63
2022/09/09 03:54:09;;;;;;;12.73;6.20;;;15.10;99.90;;;;;;5020328;28;20216;-64
2022/09/09 03:56:37;;;;;;;10.63;6.80;;;15.00;99.90;;;;;;5032647;28;20861;-63
2022/09/09 03:59:04;;;;;;;11.40;6.85;;;15.00;99.90;;;;;;5046536;28;20221;-65
2022/09/09 04:01:31;;;;;;;9.68;5.85;;;15.00;99.90;;;;;;5046398;28;21507;-63
2022/09/09 04:03:58;;;;;;;9.30;6.20;;;15.20;99.90;;;;;;5030564;28;20212;-64
2022/09/09 04:06:25;;;;;;;8.00;6.50;;;15.00;99.90;;;;;;5034917;28;20228;-63
2022/09/09 04:08:54;;;;;;;8.73;6.18;;;15.00;99.90;;;;;;5018424;28;20228;-63
2022/09/09 04:11:22;;;;;;;7.15;6.25;;;14.90;99.90;;;;;;5025582;28;20409;-64
2022/09/09 04:13:49;;;;;;;9.15;6.07;;;15.10;99.90;;;;;;5051070;28;20201;-64
2022/09/09 04:16:16;;;;;;;9.95;7.10;;;15.10;99.90;;;;;;5045424;28;20274;-64
2022/09/09 04:18:43;;;;;;;13.00;6.93;;;15.20;99.90;;;;;;5034039;28;20220;-64
2022/09/09 04:21:12;;;;;;;9.05;6.35;;;13.60;99.90;;;;;;4993490;28;20812;-64
2022/09/09 04:23:39;;;;;;;7.97;6.05;;;15.10;99.90;;;;;;5002121;28;20716;-63
2022/09/09 04:26:08;;;;;;;7.93;6.40;;;15.20;99.90;;;;;;5007604;28;20236;-63
2022/09/09 04:28:37;;;;;;;9.40;6.43;;;15.30;99.90;;;;;;5024972;28;20217;-64
2022/09/09 04:31:09;;;;;;;11.00;6.60;;;15.40;99.90;;;;;;5020287;28;20228;-65
2022/09/09 04:33:36;;;;;;;7.40;6.65;;;15.30;99.90;;;;;;5024239;28;20917;-64
2022/09/09 04:36:03;;;;;;;9.98;6.40;;;15.40;99.90;;;;;;5040429;28;20201;-64
2022/09/09 04:38:30;;;;;;;7.90;6.43;;;15.50;99.90;;;;;;5002462;28;20858;-63
2022/09/09 04:40:57;;;;;;;11.25;6.18;;;15.50;99.90;;;;;;5027987;28;21479;-63
2022/09/09 04:43:26;;;;;;;11.23;6.25;;;15.50;99.90;;;;;;5033357;28;20201;-63
2022/09/09 04:45:54;;;;;;;7.30;5.57;;;15.60;99.90;;;;;;5039466;28;20244;-64
2022/09/09 04:48:21;;;;;;;8.98;6.90;;;15.50;99.90;;;;;;5020389;28;20855;-64
2022/09/09 04:50:56;;;;;;;10.10;6.15;;;15.60;99.90;;;;;;5040683;28;20225;-63
2022/09/09 04:53:23;;;;;;;13.60;6.25;;;16.10;99.90;;;;;;5037637;28;20219;-63
2022/09/09 04:55:50;;;;;;;6.63;5.68;;;15.50;99.90;;;;;;5013230;28;20228;-64
2022/09/09 04:58:18;;;;;;;10.45;6.35;;;15.50;99.90;;;;;;5031659;28;20215;-64
2022/09/09 05:00:46;;;;;;;7.85;5.82;;;15.60;99.90;;;;;;5042744;28;20248;-64
2022/09/09 05:03:13;;;;;;;13.82;6.85;;;15.60;99.90;;;;;;5026799;28;20229;-64
2022/09/09 05:05:40;;;;;;;8.07;5.60;;;15.60;99.90;;;;;;5019159;28;20225;-64
2022/09/09 05:08:08;;;;;;;8.43;5.75;;;15.40;99.90;;;;;;5024990;28;20227;-63
2022/09/09 05:10:38;;;;;;;9.82;6.25;;;15.60;99.90;;;;;;5019005;28;20242;-63
2022/09/09 05:13:06;;;;;;;7.20;5.63;;;15.40;99.90;;;;;;5019842;28;20231;-63
2022/09/09 05:15:33;;;;;;;10.23;5.45;;;15.60;99.90;;;;;;5037333;28;20212;-64
2022/09/09 05:18:02;;;;;;;5.53;4.90;;;15.50;99.90;;;;;;5037170;28;20666;-64
2022/09/09 05:20:29;;;;;;;8.80;5.68;;;15.40;99.90;;;;;;5037490;28;20209;-64
2022/09/09 05:22:57;;;;;;;8.05;5.82;;;15.40;99.90;;;;;;5026388;28;20623;-64
2022/09/09 05:25:25;;;;;;;8.10;5.03;;;15.20;99.90;;;;;;5045772;28;20483;-64
2022/09/09 05:27:53;;;;;;;8.25;5.18;;;15.30;99.90;;;;;;4991997;28;20693;-64
2022/09/09 05:30:22;;;;;;;9.40;5.50;;;;;;;;;;5023193;28;21263;-64
2022/09/09 05:32:48;;;;;;;7.32;5.25;;;15.30;99.90;;;;;;5028287;28;20219;-64
2022/09/09 05:35:18;;;;;;;8.73;5.10;;;15.30;99.90;;;;;;5034909;28;20208;-64
2022/09/09 05:37:46;;;;;;;7.30;5.35;;;15.20;99.90;;;;;;5048324;28;20665;-63
2022/09/09 05:40:13;;;;;;;7.20;5.03;;;15.80;99.90;;;;;;5028904;28;20233;-65
2022/09/09 05:42:40;;;;;;;5.93;4.95;;;15.00;99.90;;;;;;5018812;28;21816;-66
2022/09/09 05:45:08;;;;;;;9.68;5.30;;;15.10;99.90;;;;;;5029723;28;20350;-64
2022/09/09 05:47:37;;;;;;;7.22;4.85;;;15.00;99.90;;;;;;5024922;28;20259;-63
2022/09/09 05:50:04;;;;;;;3.72;3.28;;;15.20;99.90;;;;;;5043333;28;20215;-64
2022/09/09 05:52:33;;;;;;;6.50;5.22;;;15.20;99.90;;;;;;5034283;28;20208;-63
2022/09/09 05:55:00;;;;;;;7.32;5.45;;;15.20;99.90;;;;;;5045641;28;20254;-64
2022/09/09 05:57:26;;;;;;;6.88;5.63;;;15.20;99.90;;;;;;5014180;28;20224;-63
2022/09/09 05:59:54;;;;;;;5.65;4.78;;;15.10;99.90;;;;;;5020387;28;20221;-64
2022/09/09 06:02:21;;;;;;;6.75;5.00;;;;;;;;;;5016303;28;20854;-64
2022/09/09 06:04:48;;;;;;;7.90;5.60;;;15.30;99.90;;;;;;5047777;28;20197;-63
2022/09/09 06:07:15;;;;;;;7.88;5.00;;;15.30;99.90;;;;;;5026909;28;20240;-64
2022/09/09 06:09:43;;;;;;;8.90;6.07;;;15.40;99.90;;;;;;5030636;28;20228;-63
2022/09/09 06:12:10;;;;;;;14.18;5.65;;;15.40;99.90;;;;;;5024941;28;20212;-64
2022/09/09 06:14:37;;;;;;;7.63;5.50;;;15.40;99.90;;;;;;5008975;28;20204;-63
2022/09/09 06:17:04;;;;;;;11.18;5.38;;;15.60;99.90;;;;;;5029090;28;20240;-63
2022/09/09 06:19:31;;;;;;;7.18;5.65;;;15.70;99.90;;;;;;5033886;28;20224;-63
2022/09/09 06:21:58;;;;;;;7.35;5.72;;;15.80;99.90;;;;;;5030374;28;20232;-63
2022/09/09 06:24:25;;;;;;;11.13;6.32;;;15.90;99.90;;;;;;5029004;28;20228;-64
2022/09/09 06:26:53;;;;;;;9.52;5.82;;;16.00;99.90;;;;;;5021264;28;20237;-64
2022/09/09 06:29:20;;;;;;;14.43;5.97;;;16.00;99.90;;;;;;5007114;28;20472;-63
2022/09/09 06:31:47;;;;;;;9.98;5.80;;;16.00;99.90;;;;;;4997682;28;20227;-67
2022/09/09 06:34:14;;;;;;;9.85;5.80;;;16.10;99.90;;;;;;5032666;28;20220;-64
2022/09/09 06:36:41;;;;;;;9.13;5.75;;;17.40;99.90;;;;;;5030443;28;20208;-63
2022/09/09 06:39:10;;;;;;;6.57;5.13;;;16.20;99.90;;;;;;5048057;28;20331;-64
2022/09/09 06:41:38;;;;;;;6.35;5.07;;;16.20;99.90;;;;;;5033635;28;20296;-63
2022/09/09 06:44:06;;;;;;;7.35;6.03;;;16.30;99.90;;;;;;5021624;28;20639;-64
2022/09/09 06:46:35;;;;;;;11.90;6.38;;;;;;;;;;5032249;28;20224;-64
2022/09/09 06:49:02;;;;;;;8.55;4.97;;;16.30;99.90;;;;;;5029195;28;20287;-64
2022/09/09 06:51:30;;;;;;;8.02;5.97;;;16.40;99.90;;;;;;5038994;28;20588;-63
2022/09/09 06:53:59;;;;;;;6.53;5.20;;;16.40;99.90;;;;;;5038740;28;20204;-64
2022/09/09 06:56:28;;;;;;;7.93;5.35;;;16.50;99.90;;;;;;5044862;28;20205;-65
2022/09/09 06:58:56;;;;;;;6.13;5.20;;;16.80;99.90;;;;;;5021508;28;20220;-65
2022/09/09 07:01:26;;;;;;;7.70;4.75;;;16.60;99.90;;;;;;5035060;28;20230;-64
2022/09/09 07:03:55;;;;;;;8.10;4.80;;;16.80;99.90;;;;;;5026727;28;20283;-65
2022/09/09 07:06:24;;;;;;;6.22;4.90;;;16.70;99.90;;;;;;5038529;28;20228;-64
2022/09/09 07:08:52;;;;;;;7.10;4.80;;;16.70;99.90;;;;;;5035349;28;20420;-63
2022/09/09 07:11:20;;;;;;;6.22;4.82;;;16.80;99.90;;;;;;5030857;28;20209;-63
2022/09/09 07:13:47;;;;;;;5.30;4.40;;;16.90;99.90;;;;;;5046397;28;20197;-63
2022/09/09 07:16:16;;;;;;;7.93;5.05;;;17.00;99.90;;;;;;5006766;28;20208;-63
2022/09/09 07:18:44;;;;;;;7.05;4.55;;;17.10;99.90;;;;;;5044343;28;20200;-63
2022/09/09 07:21:13;;;;;;;5.93;4.65;;;17.10;99.90;;;;;;5015643;28;20205;-64
2022/09/09 07:23:40;;;;;;;6.50;4.93;;;17.20;99.90;;;;;;5026471;28;20229;-63
2022/09/09 07:26:10;;;;;;;4.75;4.30;;;17.20;99.90;;;;;;5027750;28;20221;-62
2022/09/09 07:28:37;;;;;;;5.13;4.18;;;17.20;99.90;;;;;;5040057;28;20205;-63
2022/09/09 07:31:04;;;;;;;6.45;3.97;;;17.20;99.90;;;;;;5018503;28;20212;-63
2022/09/09 07:33:34;;;;;;;4.65;4.20;;;17.30;99.90;;;;;;5035950;28;20216;-63
2022/09/09 07:36:07;;;;;;;4.57;3.95;;;17.20;99.90;;;;;;5036188;28;20235;-63
2022/09/09 07:38:39;;;;;;;4.95;3.97;;;17.10;99.90;;;;;;5028719;28;20260;-63
2022/09/09 07:41:11;;;;;;;4.03;3.67;;;17.20;99.90;;;;;;5037421;28;20209;-63
2022/09/09 07:43:38;;;;;;;7.53;4.18;;;17.30;99.90;;;;;;5048446;28;20860;-63
2022/09/09 07:46:05;;;;;;;7.20;4.72;;;17.10;99.90;;;;;;5015097;28;20219;-63
2022/09/09 07:48:32;;;;;;;6.50;4.45;;;17.10;99.90;;;;;;5025011;28;20231;-64
2022/09/09 07:51:16;;;;;;;6.35;4.15;;;17.20;99.90;;;;;;5043920;28;20217;-63
2022/09/09 07:53:44;;;;;;;6.50;3.92;;;;;;;;;;5017832;28;20215;-64
2022/09/09 07:56:13;;;;;;;6.57;4.28;;;17.20;99.90;;;;;;5040135;28;20197;-64
2022/09/09 07:58:40;;;;;;;3.92;3.63;;;17.20;99.90;;;;;;5041742;28;20343;-63
2022/09/09 08:01:09;;;;;;;4.18;3.20;;;;;;;;;;5029611;28;20219;-64
2022/09/09 08:03:36;;;;;;;5.57;3.40;;;16.80;99.90;;;;;;5012097;28;20314;-64
2022/09/09 08:06:04;;;;;;;5.15;3.63;;;17.20;99.90;;;;;;5045170;28;20780;-64
2022/09/09 08:08:32;;;;;;;10.35;3.33;;;17.30;99.90;;;;;;5027044;28;20205;-64
2022/09/09 08:11:07;;;;;;;6.55;3.70;;;17.40;99.90;;;;;;5036298;28;20216;-64
2022/09/09 08:13:34;;;;;;;7.13;3.08;;;17.40;99.90;;;;;;5042720;28;20574;-64
2022/09/09 08:16:09;;;;;;;3.53;2.58;;;17.40;99.90;;;;;;5051015;28;20205;-64
2022/09/09 08:18:37;;;;;;;4.35;2.58;;;17.40;99.90;;;;;;5020152;28;20211;-64
2022/09/09 08:21:11;;;;;;;7.72;2.42;;;17.40;99.90;;;;;;5048044;28;20279;-63
2022/09/09 08:23:40;;;;;;;5.97;2.58;;;17.40;99.90;;;;;;5022603;28;20208;-64
2022/09/09 08:26:11;;;;;;;3.28;2.45;;;17.40;99.10;;;;;;5034960;28;20201;-64
2022/09/09 08:28:39;;;;;;;5.57;2.97;;;17.40;99.90;;;;;;5039833;28;20205;-63
2022/09/09 08:31:07;;;;;;;3.22;2.38;;;17.40;99.10;;;;;;5045804;28;20682;-64
2022/09/09 08:33:36;;;;;;;6.60;2.95;;;17.40;99.80;;;;;;5004607;28;20317;-64
2022/09/09 08:36:03;;;;;;;3.80;2.60;;;17.50;98.20;;;;;;5043709;28;20201;-64
2022/09/09 08:38:29;;;;;;;5.60;2.60;;;17.60;98.50;;;;;;5024757;28;20251;-63
2022/09/09 08:41:12;;;;;;;5.60;3.05;;;17.60;97.80;;;;;;5036406;28;20209;-65
2022/09/09 08:43:39;;;;;;;7.90;3.30;;;17.60;97.70;;;;;;5029853;28;20204;-64
2022/09/09 08:46:11;;;;;;;4.47;3.65;;;17.80;97.10;;;;;;5052755;28;20219;-64
2022/09/09 08:48:52;;;;;;;6.10;3.78;;;17.80;97.40;;;;;;5018627;28;22083;-64
2022/09/09 08:51:19;;;;;;;8.20;3.92;;;17.90;96.20;;;;;;5030637;28;20220;-64
2022/09/09 08:53:52;;;;;;;12.05;4.00;;;17.90;96.40;;;;;;5033221;28;20315;-64
2022/09/09 08:56:26;;;;;;;4.55;4.13;;;18.00;96.10;;;;;;5033945;28;20225;-65
2022/09/09 08:58:55;;;;;;;5.85;4.05;;;18.50;97.20;;;;;;5020948;28;20235;-64
2022/09/09 09:01:46;;;;;;;8.88;4.28;;;18.00;96.40;;;;;;5046680;28;20197;-64
2022/09/09 09:04:30;;;;;;;5.82;4.07;;;18.20;95.50;;;;;;4996908;28;20228;-65
2022/09/09 09:07:08;;;;;;;6.55;3.15;;;18.20;95.70;;;;;;5029825;28;20225;-64
2022/09/09 09:09:41;;;;;;;3.13;2.80;;;18.20;95.20;;;;;;5022543;28;20199;-64
2022/09/09 09:12:17;;;;;;;6.45;3.50;;;18.00;94.10;;;;;;5037016;28;20216;-64
2022/09/09 09:14:44;;;;;;;6.13;3.40;;;;;;;;;;5016931;28;20220;-63
2022/09/09 09:17:15;;;;;;;4.93;3.88;;;18.00;94.00;;;;;;5039857;28;20229;-64
2022/09/09 09:19:43;;;;;;;5.45;3.17;;;18.20;93.80;;;;;;5013573;28;20252;-64
2022/09/09 09:22:18;;;;;;;5.97;3.25;;;18.20;93.60;;;;;;5032245;28;20608;-64
2022/09/09 09:24:52;;;;;;;5.13;3.35;;;18.10;93.10;;;;;;5033813;28;20227;-63
2022/09/09 09:27:31;;;;;;;4.10;3.20;;;18.10;92.10;;;;;;5019828;28;20231;-64
2022/09/09 09:30:01;;;;;;;9.25;3.72;;;18.30;92.50;;;;;;5028624;28;20701;-64
2022/09/09 09:32:32;;;;;;;5.47;3.60;;;18.20;92.00;;;;;;5029026;28;20208;-64
2022/09/09 09:35:04;;;;;;;5.38;3.92;;;18.30;90.10;;;;;;5007970;28;20315;-64
2022/09/09 09:37:33;;;;;;;4.45;3.95;;;18.30;87.90;;;;;;5013266;28;20236;-64
2022/09/09 09:40:10;;;;;;;4.97;4.15;;;18.30;86.60;;;;;;5044385;28;20236;-63
2022/09/09 09:42:39;;;;;;;6.00;3.78;;;18.50;87.20;;;;;;5033214;28;20211;-64
2022/09/09 09:45:18;;;;;;;5.40;4.90;;;18.40;86.30;;;;;;5022259;28;20259;-64
2022/09/09 09:47:45;;;;;;;7.20;4.53;;;;;;;;;;5044800;28;20236;-64
2022/09/09 09:50:19;;;;;;;7.28;4.90;;;18.70;84.60;;;;;;5005349;28;20797;-64
2022/09/09 09:52:55;;;;;;;9.98;5.75;;;18.70;80.20;;;;;;5037162;28;20287;-64
2022/09/09 09:55:23;;;;;;;9.07;5.40;;;18.60;78.20;;;;;;5043529;28;20201;-65
2022/09/09 09:57:53;;;;;;;7.28;5.63;;;18.70;79.20;;;;;;5037852;28;20719;-64
2022/09/09 10:00:21;;;;;;;7.05;5.13;;;18.70;79.10;;;;;;5023478;28;20324;-64
2022/09/09 10:02:51;;;;;;;5.00;4.30;;;18.70;78.30;;;;;;5046718;28;20193;-64
2022/09/09 10:05:21;;;;;;;6.78;4.57;;;18.80;79.30;;;;;;5007863;28;22047;-64
2022/09/09 10:07:58;;;;;;;5.88;4.53;;;18.70;75.90;;;;;;5028178;28;20232;-64
2022/09/09 10:10:35;;;;;;;4.80;4.32;;;18.80;74.50;;;;;;5026730;28;20205;-64
2022/09/09 10:13:12;;;;;;;5.03;4.53;;;18.80;71.00;;;;;;5038366;28;20326;-64
2022/09/09 10:15:46;;;;;;;6.15;4.22;;;18.70;70.40;;;;;;5023524;28;20207;-64
2022/09/09 10:18:39;;;;;;;8.07;4.80;;;18.70;73.30;;;;;;5047379;28;20208;-64
2022/09/09 10:21:19;;;;;;;3.90;3.47;;;18.90;72.20;;;;;;5017650;28;20401;-64
2022/09/09 10:24:06;;;;;;;3.95;3.40;;;18.70;71.50;;;;;;5029775;28;20208;-64
2022/09/09 10:26:40;;;;;;;4.45;3.30;;;18.70;71.50;;;;;;5044386;28;21088;-64
2022/09/09 10:29:38;;;;;;;10.13;3.72;;;18.80;74.10;;;;;;5039065;28;20223;-64
2022/09/09 10:32:19;;;;;;;3.55;3.10;;;18.80;69.90;;;;;;5031056;28;20205;-65
2022/09/09 10:34:58;;;;;;;4.35;3.17;;;18.80;65.30;;;;;;5039717;28;20193;-64
2022/09/09 10:37:57;;;;;;;5.38;3.17;;;18.90;65.40;;;;;;5005738;28;25684;-64
2022/09/09 10:40:32;;;;;;;5.60;3.42;;;18.70;65.00;;;;;;5028696;28;20307;-64
2022/09/09 10:43:10;;;;;;;7.68;3.03;;;18.80;64.10;;;;;;5025809;28;20234;-64
2022/09/09 10:45:46;;;;;;;5.72;2.97;;;18.80;65.00;;;;;;5020344;28;20229;-63
2022/09/09 10:48:30;;;;;;;4.68;3.20;;;18.80;65.60;;;;;;5025145;28;20314;-65
2022/09/09 10:51:07;;;;;;;5.40;3.10;;;19.00;63.70;;;;;;5015496;28;20886;-65
2022/09/09 10:53:40;;;;;;;7.25;2.95;;;19.10;62.60;;;;;;5009182;28;20228;-65
2022/09/09 10:56:10;;;;;;;3.35;2.83;;;19.30;55.70;;;;;;5021468;28;23092;-64
2022/09/09 10:58:44;;;;;;;5.13;2.85;;;19.40;55.70;;;;;;5000576;28;20228;-65
2022/09/09 11:01:19;;;;;;;4.00;2.85;;;19.50;51.20;;;;;;5014953;28;20750;-65
2022/09/09 11:03:52;;;;;;;4.80;2.90;;;19.50;51.50;;;;;;5008128;28;20212;-65
2022/09/09 11:06:22;;;;;;;3.03;2.78;;;19.60;51.00;;;;;;5023514;28;21569;-64
2022/09/09 11:08:50;;;;;;;5.53;2.90;;;19.70;50.60;;;;;;5023193;28;20266;-65
2022/09/09 11:11:23;;;;;;;2.97;2.65;;;19.10;44.80;;;;;;5024675;28;20197;-64
2022/09/09 11:13:56;;;;;;;10.18;3.17;;;19.50;41.50;;;;;;5031811;28;21372;-64
2022/09/09 11:16:29;;;;;;;3.97;2.63;;;19.50;40.40;;;;;;5026330;28;20285;-65
2022/09/09 11:19:01;;;;;;;7.95;3.35;;;19.50;40.70;;;;;;5027859;28;20209;-64
2022/09/09 11:21:32;;;;;;;4.00;3.15;;;19.50;40.80;;;;;;5021218;28;20212;-65
2022/09/09 11:24:02;;;;;;;4.68;3.10;;;19.50;41.40;;;;;;5014789;28;20701;-64
2022/09/09 11:26:34;;;;;;;5.13;3.15;;;19.50;41.30;;;;;;5002283;28;20433;-64
2022/09/09 11:29:34;;;;;;;5.13;3.20;;;19.20;42.90;;;;;;5026960;28;20235;-64
2022/09/09 11:32:15;;;;;;;7.22;3.10;;;19.80;42.90;;;;;;5030641;28;20709;-65
2022/09/09 11:34:52;;;;;;;5.25;2.72;;;;;;;;;;5028791;28;21158;-65
2022/09/09 11:37:34;;;;;;;6.22;3.40;;;22.40;40.70;;;;;;5008594;28;20224;-65
2022/09/09 11:40:16;;;;;;;3.20;2.83;;;19.40;37.90;;;;;;5021567;28;20236;-64
2022/09/09 11:42:43;;;;;;;6.32;3.17;;;19.00;42.30;;;;;;5015218;28;23467;-65
2022/09/09 11:45:23;;;;;;;3.35;3.15;;;19.30;40.30;;;;;;5025333;28;20228;-65
2022/09/09 11:47:56;;;;;;;5.07;3.22;;;19.40;41.70;;;;;;5003745;28;20225;-64
2022/09/09 11:50:32;;;;;;;6.97;4.25;;;19.40;42.40;;;;;;5024220;28;20201;-66
2022/09/09 11:53:22;;;;;;;7.30;4.28;;;19.60;57.10;;;;;;5042080;28;20196;-65
2022/09/09 11:56:00;;;;;;;6.35;3.45;;;19.70;60.90;;;;;;5012394;28;20233;-65
2022/09/09 11:58:32;;;;;;;5.78;3.70;;;19.60;60.00;;;;;;5012225;28;20239;-65
2022/09/09 12:00:59;;;;;;;5.65;3.75;;;19.80;61.30;;;;;;5035650;28;20208;-65
2022/09/09 12:03:38;;;;;;;6.53;3.40;;;19.70;57.50;;;;;;4994459;28;20204;-64
2022/09/09 12:06:19;;;;;;;8.77;2.88;;;20.20;46.70;;;;;;5023303;28;20327;-65
2022/09/09 12:08:52;;;;;;;4.60;2.90;;;19.60;44.90;;;;;;5023684;28;20599;-65
2022/09/09 12:11:30;;;;;;;2.97;2.40;;;19.50;44.30;;;;;;4997333;28;20333;-65
2022/09/09 12:13:59;;;;;;;4.57;2.83;;;19.40;41.90;;;;;;5011142;28;20294;-65
2022/09/09 12:16:33;;;;;;;5.35;2.78;;;19.20;43.40;;;;;;5024166;28;20227;-64
2022/09/09 12:19:16;;;;;;;4.65;2.42;;;19.30;41.70;;;;;;5028714;28;20962;-65
2022/09/09 12:21:49;;;;;;;5.80;2.58;;;19.30;41.40;;;;;;5035850;28;20216;-64
2022/09/09 12:24:24;;;;;;;6.18;2.83;;;19.40;43.70;;;;;;4990255;28;20231;-65
2022/09/09 12:26:57;;;;;;;4.15;2.78;;;19.40;43.40;;;;;;5003390;28;20221;-65
2022/09/09 12:29:34;;;;;;;5.75;2.83;;;19.30;41.20;;;;;;5001744;28;20969;-65
2022/09/09 12:32:07;;;;;;;6.00;3.13;;;19.30;42.20;;;;;;5023926;28;20230;-65
2022/09/09 12:34:41;;;;;;;4.20;2.92;;;19.30;42.50;;;;;;5022843;28;20209;-66
2022/09/09 12:37:18;;;;;;;6.63;2.80;;;19.50;47.70;;;;;;5023244;28;20295;-66
2022/09/09 12:39:48;;;;;;;6.32;2.80;;;19.30;42.10;;;;;;5021716;28;20961;-65
2022/09/09 12:42:19;;;;;;;5.90;2.45;;;19.10;38.80;;;;;;5007996;28;23176;-66
2022/09/09 12:44:57;;;;;;;3.78;2.45;;;19.20;38.30;;;;;;5014987;28;20283;-64
2022/09/09 12:47:31;;;;;;;4.38;2.97;;;18.80;42.10;;;;;;5002939;28;20815;-66
2022/09/09 12:50:00;;;;;;;12.02;2.90;;;19.30;42.50;;;;;;5030943;28;20236;-65
2022/09/09 12:52:30;;;;;;;9.73;3.53;;;19.40;42.30;;;;;;5020600;22;20233;-64
2022/09/09 12:54:59;;;;;;;2.72;2.47;;;19.30;43.30;;;;;;5015107;28;20229;-64
2022/09/09 12:57:30;;;;;;;7.03;3.20;;;19.30;44.30;;;;;;5004655;28;20235;-65
2022/09/09 13:00:13;;;;;;;4.68;2.50;;;19.30;44.60;;;;;;5041437;28;20310;-64
2022/09/09 13:02:50;;;;;;;3.90;2.42;;;19.30;43.80;;;;;;5042858;28;20200;-64
2022/09/09 13:05:22;;;;;;;4.93;2.72;;;19.30;45.60;;;;;;5026032;28;20215;-64
2022/09/09 13:07:49;;;;;;;3.90;2.63;;;19.40;45.50;;;;;;5031031;28;20229;-64
2022/09/09 13:10:26;;;;;;;3.53;2.70;;;19.30;44.60;;;;;;5030096;28;20231;-65